Time;durP1;ratioP1;P1;durP2;ratioP2;P2;SDS_P1;SDS_P2;PMS_P1;PMS_P2;Temp;Humidity;BMP_temperature;BMP_pressure;BME280_temperature;BME280_humidity;BME280_pressure;Samples;Min_cycle;Max_cycle;Signal;HPM_P1;HPM_P2
2024/01/25 00:02:21;;;;;;;;;;;;;;;;;;5128585;28;20041;-45
2024/01/25 00:04:47;;;;;;;;;;;;;;;;;;5128666;28;20363;-43
2024/01/25 00:07:12;;;;;;;;;;;;;;;;;;5129144;28;20010;-43
2024/01/25 00:09:38;;;;;;;;;;;;;;;;;;5128761;28;19966;-45
2024/01/25 00:12:03;;;;;;;;;;;;;;;;;;5128645;28;20002;-46
2024/01/25 00:14:28;;;;;;;;;;;;;;;;;;5128275;28;20052;-43
2024/01/25 00:16:54;;;;;;;;;;;;;;;;;;5128374;28;20101;-44
2024/01/25 00:19:19;;;;;;;;;;;;;;;;;;5128706;28;19967;-45
2024/01/25 00:21:45;;;;;;;;;;;;;;;;;;5128597;28;20018;-46
2024/01/25 00:24:11;;;;;;;;;;;;;;;;;;5128078;28;20010;-43
2024/01/25 00:26:36;;;;;;;;;;;;;;;;;;5128455;28;19995;-43
2024/01/25 00:29:02;;;;;;;;;;;;;;;;;;5128019;28;19932;-45
2024/01/25 00:31:27;;;;;;;;;;;;;;;;;;5127810;28;20425;-43
2024/01/25 00:33:53;;;;;;;;;;;;;;;;;;5126809;28;19947;-43
2024/01/25 00:36:18;;;;;;;;;;;;;;;;;;5127360;27;20014;-44
2024/01/25 00:38:44;;;;;;;;;;;;;;;;;;5126066;28;20378;-43
2024/01/25 00:41:10;;;;;;;;;;;;;;;;;;5126726;28;20398;-44
2024/01/25 00:43:35;;;;;;;;;;;;;;;;;;5126830;28;19927;-43
2024/01/25 00:46:00;;;;;;;;;;;;;;;;;;5127206;28;20352;-44
2024/01/25 00:48:26;;;;;;;;;;;;;;;;;;5127992;28;20414;-43
2024/01/25 00:50:52;;;;;;;;;;;;;;;;;;5127999;28;19974;-42
2024/01/25 00:53:17;;;;;;;;;;;;;;;;;;5127172;28;19931;-43
2024/01/25 00:55:43;;;;;;;;;;;;;;;;;;5127738;28;19930;-44
2024/01/25 00:58:08;;;;;;;;;;;;;;;;;;5128212;28;20007;-45
2024/01/25 01:00:34;;;;;;;;;;;;;;;;;;5127308;28;20008;-46
2024/01/25 01:03:00;;;;;;;;;;;;;;;;;;5127199;28;19976;-43
2024/01/25 01:05:25;;;;;;;;;;;;;;;;;;5128101;28;20389;-45
2024/01/25 01:07:51;;;;;;;;;;;;;;;;;;5128176;28;19939;-47
2024/01/25 01:10:16;;;;;;;;;;;;;;;;;;5127459;28;19927;-43
2024/01/25 01:12:42;;;;;;;;;;;;;;;;;;5127515;28;19962;-44
2024/01/25 01:15:07;;;;;;;;;;;;;;;;;;5127797;28;19931;-44
2024/01/25 01:17:33;;;;;;;;;;;;;;;;;;5127960;28;19930;-45
2024/01/25 01:19:58;;;;;;;;;;;;;;;;;;5127530;28;19931;-44
2024/01/25 01:22:24;;;;;;;;;;;;;;;;;;5127393;28;20373;-43
2024/01/25 01:24:50;;;;;;;;;;;;;;;;;;5126085;28;19924;-44
2024/01/25 01:27:15;;;;;;;;;;;;;;;;;;5126665;28;20430;-45
2024/01/25 01:29:41;;;;;;;;;;;;;;;;;;5126553;28;20331;-44
2024/01/25 01:32:06;;;;;;;;;;;;;;;;;;5126053;28;19924;-45
2024/01/25 01:34:32;;;;;;;;;;;;;;;;;;5126030;28;19923;-43
2024/01/25 01:36:57;;;;;;;;;;;;;;;;;;5126959;28;20454;-43
2024/01/25 01:39:23;;;;;;;;;;;;;;;;;;5125776;28;19927;-43
2024/01/25 01:41:48;;;;;;;;;;;;;;;;;;5126127;28;20237;-43
2024/01/25 01:44:14;;;;;;;;;;;;;;;;;;5126669;28;20352;-43
2024/01/25 01:46:41;;;;;;;;;;;;;;;;;;5126862;28;20005;-46
2024/01/25 01:49:08;;;;;;;;;;;;;;;;;;5129199;27;19978;-44
2024/01/25 01:51:34;;;;;;;;;;;;;;;;;;5131040;28;19923;-45
2024/01/25 01:53:59;;;;;;;;;;;;;;;;;;5130106;28;20189;-43
2024/01/25 01:56:25;;;;;;;;;;;;;;;;;;5130713;28;19993;-48
2024/01/25 01:58:50;;;;;;;;;;;;;;;;;;5130612;28;20064;-45
2024/01/25 02:01:16;;;;;;;;;;;;;;;;;;5130540;28;20418;-44
2024/01/25 02:03:41;;;;;;;;;;;;;;;;;;5129862;28;20006;-44
2024/01/25 02:06:07;;;;;;;;;;;;;;;;;;5130848;28;19930;-43
2024/01/25 02:08:33;;;;;;;;;;;;;;;;;;5131193;28;20018;-44
2024/01/25 02:10:58;;;;;;;;;;;;;;;;;;5130180;28;20290;-44
2024/01/25 02:13:23;;;;;;;;;;;;;;;;;;5129715;28;20018;-43
2024/01/25 02:15:49;;;;;;;;;;;;;;;;;;5131043;28;19934;-44
2024/01/25 02:18:14;;;;;;;;;;;;;;;;;;5130763;28;20018;-44
2024/01/25 02:20:40;;;;;;;;;;;;;;;;;;5130286;28;19923;-43
2024/01/25 02:23:06;;;;;;;;;;;;;;;;;;5129887;28;20018;-43
2024/01/25 02:25:31;;;;;;;;;;;;;;;;;;5129069;28;20023;-45
2024/01/25 02:27:56;;;;;;;;;;;;;;;;;;5129706;28;20015;-45
2024/01/25 02:30:22;;;;;;;;;;;;;;;;;;5129251;28;19985;-43
2024/01/25 02:32:47;;;;;;;;;;;;;;;;;;5128879;28;19974;-44
2024/01/25 02:35:13;;;;;;;;;;;;;;;;;;5128646;28;20014;-44
2024/01/25 02:37:38;;;;;;;;;;;;;;;;;;5129383;28;19931;-44
2024/01/25 02:40:04;;;;;;;;;;;;;;;;;;5129190;28;20018;-43
2024/01/25 02:42:29;;;;;;;;;;;;;;;;;;5129426;28;20453;-44
2024/01/25 02:44:55;;;;;;;;;;;;;;;;;;5129640;28;20034;-43
2024/01/25 02:47:20;;;;;;;;;;;;;;;;;;5130209;28;20022;-45
2024/01/25 02:49:46;;;;;;;;;;;;;;;;;;5130093;28;20250;-46
2024/01/25 02:52:11;;;;;;;;;;;;;;;;;;5129836;28;19965;-44
2024/01/25 02:54:37;;;;;;;;;;;;;;;;;;5129085;28;20461;-45
2024/01/25 02:57:03;;;;;;;;;;;;;;;;;;5129391;28;19923;-43
2024/01/25 02:59:28;;;;;;;;;;;;;;;;;;5129322;27;19930;-43
2024/01/25 03:01:53;;;;;;;;;;;;;;;;;;5128508;28;20409;-44
2024/01/25 03:04:19;;;;;;;;;;;;;;;;;;5128597;28;19993;-43
2024/01/25 03:06:44;;;;;;;;;;;;;;;;;;5129724;28;19962;-43
2024/01/25 03:09:10;;;;;;;;;;;;;;;;;;5129791;28;19924;-43
2024/01/25 03:11:35;;;;;;;;;;;;;;;;;;5129323;28;19931;-44
2024/01/25 03:14:01;;;;;;;;;;;;;;;;;;5128897;28;20026;-43
2024/01/25 03:16:26;;;;;;;;;;;;;;;;;;5129828;28;20407;-44
2024/01/25 03:18:52;;;;;;;;;;;;;;;;;;5129625;28;19931;-43
2024/01/25 03:21:17;;;;;;;;;;;;;;;;;;5128968;28;19959;-45
2024/01/25 03:23:43;;;;;;;;;;;;;;;;;;5127541;28;19927;-43
2024/01/25 03:26:08;;;;;;;;;;;;;;;;;;5128580;28;19931;-44
2024/01/25 03:28:34;;;;;;;;;;;;;;;;;;5128624;28;20010;-43
2024/01/25 03:31:00;;;;;;;;;;;;;;;;;;5127897;28;19981;-42
2024/01/25 03:33:26;;;;;;;;;;;;;;;;;;5127541;28;19962;-44
2024/01/25 03:35:51;;;;;;;;;;;;;;;;;;5128900;28;20014;-44
2024/01/25 03:38:17;;;;;;;;;;;;;;;;;;5128737;28;19934;-44
2024/01/25 03:40:42;;;;;;;;;;;;;;;;;;5129019;28;20711;-47
2024/01/25 03:43:09;;;;;;;;;;;;;;;;;;5128833;28;19936;-44
2024/01/25 03:45:43;;;;;;;;;;;;;;;;;;5128462;28;19928;-46
2024/01/25 03:48:09;;;;;;;;;;;;;;;;;;5129305;28;19927;-44
2024/01/25 03:50:34;;;;;;;;;;;;;;;;;;5129332;28;20441;-43
2024/01/25 03:53:00;;;;;;;;;;;;;;;;;;5128584;28;19984;-43
2024/01/25 03:55:25;;;;;;;;;;;;;;;;;;5128410;28;20069;-43
2024/01/25 03:57:51;;;;;;;;;;;;;;;;;;5129286;28;19959;-44
2024/01/25 04:00:16;;;;;;;;;;;;;;;;;;5128493;27;19996;-44
2024/01/25 04:02:42;;;;;;;;;;;;;;;;;;5128603;28;19927;-44
2024/01/25 04:05:07;;;;;;;;;;;;;;;;;;5128532;28;20379;-43
2024/01/25 04:07:33;;;;;;;;;;;;;;;;;;5128682;28;20314;-45
2024/01/25 04:09:58;;;;;;;;;;;;;;;;;;5128547;28;20016;-44
2024/01/25 04:12:25;;;;;;;;;;;;;;;;;;5128011;27;20006;-44
2024/01/25 04:14:50;;;;;;;;;;;;;;;;;;5128122;28;19938;-46
2024/01/25 04:17:15;;;;;;;;;;;;;;;;;;5128320;28;19966;-43
2024/01/25 04:19:41;;;;;;;;;;;;;;;;;;5127259;28;20022;-43
2024/01/25 04:22:06;;;;;;;;;;;;;;;;;;5127739;28;19927;-44
2024/01/25 04:24:32;;;;;;;;;;;;;;;;;;5127547;28;20415;-45
2024/01/25 04:26:57;;;;;;;;;;;;;;;;;;5127851;28;19957;-46
2024/01/25 04:29:23;;;;;;;;;;;;;;;;;;5127695;28;20072;-44
2024/01/25 04:31:48;;;;;;;;;;;;;;;;;;5127484;28;20064;-44
2024/01/25 04:34:14;;;;;;;;;;;;;;;;;;5127554;28;19924;-45
2024/01/25 04:36:39;;;;;;;;;;;;;;;;;;5128642;28;20045;-43
2024/01/25 04:39:05;;;;;;;;;;;;;;;;;;5128176;28;20358;-43
2024/01/25 04:41:30;;;;;;;;;;;;;;;;;;5128022;28;19923;-44
2024/01/25 04:43:56;;;;;;;;;;;;;;;;;;5127517;28;20064;-46
2024/01/25 04:46:21;;;;;;;;;;;;;;;;;;5128666;28;20022;-45
2024/01/25 04:48:47;;;;;;;;;;;;;;;;;;5128161;28;19974;-44
2024/01/25 04:51:13;;;;;;;;;;;;;;;;;;5128212;28;19923;-48
2024/01/25 04:53:38;;;;;;;;;;;;;;;;;;5127212;28;19978;-42
2024/01/25 04:56:03;;;;;;;;;;;;;;;;;;5128097;28;20022;-44
2024/01/25 04:58:29;;;;;;;;;;;;;;;;;;5128402;28;20022;-43
2024/01/25 05:00:55;;;;;;;;;;;;;;;;;;5127408;28;20439;-44
2024/01/25 05:03:20;;;;;;;;;;;;;;;;;;5127393;28;19923;-44
2024/01/25 05:05:46;;;;;;;;;;;;;;;;;;5127665;28;19930;-44
2024/01/25 05:08:12;;;;;;;;;;;;;;;;;;5127650;28;19972;-44
2024/01/25 05:10:37;;;;;;;;;;;;;;;;;;5127201;28;20030;-43
2024/01/25 05:13:03;;;;;;;;;;;;;;;;;;5126649;28;19923;-45
2024/01/25 05:15:28;;;;;;;;;;;;;;;;;;5126864;28;20010;-44
2024/01/25 05:17:54;;;;;;;;;;;;;;;;;;5126507;28;20302;-43
2024/01/25 05:20:19;;;;;;;;;;;;;;;;;;5126930;28;20355;-44
2024/01/25 05:22:46;;;;;;;;;;;;;;;;;;5126465;27;20377;-44
2024/01/25 05:25:11;;;;;;;;;;;;;;;;;;5125374;28;19950;-45
2024/01/25 05:27:36;;;;;;;;;;;;;;;;;;5127022;28;19985;-44
2024/01/25 05:30:02;;;;;;;;;;;;;;;;;;5127277;28;20023;-46
2024/01/25 05:32:28;;;;;;;;;;;;;;;;;;5127212;28;19938;-45
2024/01/25 05:34:53;;;;;;;;;;;;;;;;;;5127396;28;20026;-45
2024/01/25 05:37:19;;;;;;;;;;;;;;;;;;5127508;28;20041;-42
2024/01/25 05:39:44;;;;;;;;;;;;;;;;;;5127478;28;19988;-44
2024/01/25 05:42:10;;;;;;;;;;;;;;;;;;5127046;28;20030;-46
2024/01/25 05:44:36;;;;;;;;;;;;;;;;;;5126884;28;19924;-44
2024/01/25 05:47:01;;;;;;;;;;;;;;;;;;5127428;28;19948;-46
2024/01/25 05:49:26;;;;;;;;;;;;;;;;;;5127372;28;20010;-44
2024/01/25 05:51:52;;;;;;;;;;;;;;;;;;5123518;28;20069;-45
2024/01/25 05:54:17;;;;;;;;;;;;;;;;;;5126579;28;20018;-44
2024/01/25 05:56:43;;;;;;;;;;;;;;;;;;5125194;28;19962;-45
2024/01/25 05:59:08;;;;;;;;;;;;;;;;;;5126873;27;20008;-43
2024/01/25 06:01:34;;;;;;;;;;;;;;;;;;5126881;28;19927;-45
2024/01/25 06:04:00;;;;;;;;;;;;;;;;;;5120190;28;19924;-44
2024/01/25 06:06:25;;;;;;;;;;;;;;;;;;5124921;28;20052;-45
2024/01/25 06:08:51;;;;;;;;;;;;;;;;;;5124083;28;20047;-43
2024/01/25 06:11:23;;;;;;;;;;;;;;;;;;5125388;28;19927;-44
2024/01/25 06:13:49;;;;;;;;;;;;;;;;;;5125813;28;19924;-44
2024/01/25 06:16:14;;;;;;;;;;;;;;;;;;5124358;28;20279;-43
2024/01/25 06:18:40;;;;;;;;;;;;;;;;;;5125365;28;19970;-43
2024/01/25 06:21:05;;;;;;;;;;;;;;;;;;5125255;28;20349;-43
2024/01/25 06:23:31;;;;;;;;;;;;;;;;;;5125460;28;19991;-45
2024/01/25 06:25:56;;;;;;;;;;;;;;;;;;5124739;28;20000;-44
2024/01/25 06:28:22;;;;;;;;;;;;;;;;;;5125695;28;19924;-44
2024/01/25 06:30:47;;;;;;;;;;;;;;;;;;5122780;28;20392;-43
2024/01/25 06:33:13;;;;;;;;;;;;;;;;;;5120199;28;19923;-43
2024/01/25 06:35:38;;;;;;;;;;;;;;;;;;5121973;27;19936;-46
2024/01/25 06:38:04;;;;;;;;;;;;;;;;;;5125747;28;20375;-47
2024/01/25 06:40:29;;;;;;;;;;;;;;;;;;5126777;28;19966;-45
2024/01/25 06:42:55;;;;;;;;;;;;;;;;;;5125571;27;20026;-45
2024/01/25 06:45:21;;;;;;;;;;;;;;;;;;5123032;28;20037;-44
2024/01/25 06:47:46;;;;;;;;;;;;;;;;;;5126269;28;19970;-43
2024/01/25 06:50:12;;;;;;;;;;;;;;;;;;5126432;28;20026;-44
2024/01/25 06:52:37;;;;;;;;;;;;;;;;;;5125577;28;19966;-44
2024/01/25 06:55:03;;;;;;;;;;;;;;;;;;5123960;28;19977;-45
2024/01/25 06:57:29;;;;;;;;;;;;;;;;;;5127337;28;20321;-44
2024/01/25 06:59:54;;;;;;;;;;;;;;;;;;5125511;28;19951;-43
2024/01/25 07:02:19;;;;;;;;;;;;;;;;;;5122923;28;20454;-44
2024/01/25 07:04:45;;;;;;;;;;;;;;;;;;5124498;27;19942;-45
2024/01/25 07:07:11;;;;;;;;;;;;;;;;;;5127710;28;19971;-44
2024/01/25 07:09:36;;;;;;;;;;;;;;;;;;5122414;28;20299;-44
2024/01/25 07:12:02;;;;;;;;;;;;;;;;;;5127172;28;19984;-44
2024/01/25 07:14:27;;;;;;;;;;;;;;;;;;5126767;28;20397;-45
2024/01/25 07:16:53;;;;;;;;;;;;;;;;;;5119793;28;20282;-43
2024/01/25 07:19:18;;;;;;;;;;;;;;;;;;5124379;28;19967;-45
2024/01/25 07:21:45;;;;;;;;;;;;;;;;;;5121406;27;19931;-43
2024/01/25 07:24:11;;;;;;;;;;;;;;;;;;5118829;28;19932;-46
2024/01/25 07:26:36;;;;;;;;;;;;;;;;;;5115437;27;20030;-47
2024/01/25 07:29:02;;;;;;;;;;;;;;;;;;5124986;28;20030;-44
2024/01/25 07:31:27;;;;;;;;;;;;;;;;;;5118484;28;19949;-44
2024/01/25 07:33:53;;;;;;;;;;;;;;;;;;5123006;28;20410;-43
2024/01/25 07:36:18;;;;;;;;;;;;;;;;;;5123979;28;20145;-44
2024/01/25 07:38:43;;;;;;;;;;;;;;;;;;5121218;28;19979;-43
2024/01/25 07:41:09;;;;;;;;;;;;;;;;;;5115895;27;20432;-43
2024/01/25 07:43:34;;;;;;;;;;;;;;;;;;5116300;27;20035;-44
2024/01/25 07:46:00;;;;;;;;;;;;;;;;;;5080558;27;20017;-44
2024/01/25 07:48:25;;;;;;;;;;;;;;;;;;5058236;28;20334;-45
2024/01/25 07:50:51;;;;;;;;;;;;;;;;;;5060602;28;20516;-43
2024/01/25 07:53:17;;;;;;;;;;;;;;;;;;5048241;28;22617;-46
2024/01/25 07:55:43;;;;;;;;;;;;;;;;;;5054675;28;19932;-45
2024/01/25 07:58:09;;;;;;;;;;;;;;;;;;5059317;28;21589;-43
2024/01/25 08:00:34;;;;;;;;;;;;;;;;;;5049860;28;19943;-42
2024/01/25 08:03:00;;;;;;;;;;;;;;;;;;5054896;28;19932;-44
2024/01/25 08:05:25;;;;;;;;;;;;;;;;;;5053197;28;20015;-44
2024/01/25 08:07:59;;;;;;;;;;;;;;;;;;5046991;28;19935;-43
2024/01/25 08:10:25;;;;;;;;;;;;;;;;;;5056236;28;19932;-45
2024/01/25 08:12:51;;;;;;;;;;;;;;;;;;5056235;28;19928;-43
2024/01/25 08:15:20;;;;;;;;;;;;;;;;;;5054817;28;20392;-43
2024/01/25 08:17:46;;;;;;;;;;;;;;;;;;5060670;28;20027;-44
2024/01/25 08:20:13;;;;;;;;;;;;;;;;;;5056139;28;19928;-43
2024/01/25 08:22:39;;;;;;;;;;;;;;;;;;5051400;28;20006;-43
2024/01/25 08:25:04;;;;;;;;;;;;;;;;;;5055081;28;20010;-44
2024/01/25 08:27:30;;;;;;;;;;;;;;;;;;5053871;28;20326;-44
2024/01/25 08:29:56;;;;;;;;;;;;;;;;;;5056151;28;19935;-44
2024/01/25 08:32:21;;;;;;;;;;;;;;;;;;5057447;28;19932;-43
2024/01/25 08:34:47;;;;;;;;;;;;;;;;;;5060158;28;19955;-44
2024/01/25 08:37:12;;;;;;;;;;;;;;;;;;5052750;28;19964;-43
2024/01/25 08:39:38;;;;;;;;;;;;;;;;;;5053380;28;19981;-45
2024/01/25 08:42:06;;;;;;;;;;;;;;;;;;5052583;28;20291;-44
2024/01/25 08:44:31;;;;;;;;;;;;;;;;;;5047634;28;20347;-43
2024/01/25 08:46:57;;;;;;;;;;;;;;;;;;5053670;28;20474;-44
2024/01/25 08:49:22;;;;;;;;;;;;;;;;;;5053515;28;19932;-44
2024/01/25 08:51:48;;;;;;;;;;;;;;;;;;5052952;28;20034;-43
2024/01/25 08:54:14;;;;;;;;;;;;;;;;;;5048344;28;19936;-43
2024/01/25 08:56:39;;;;;;;;;;;;;;;;;;5051988;28;19936;-43
2024/01/25 08:59:05;;;;;;;;;;;;;;;;;;5051743;28;19932;-44
2024/01/25 09:01:30;;;;;;;;;;;;;;;;;;5056350;28;21261;-45
2024/01/25 09:04:00;;;;;;;;;;;;;;;;;;5051876;28;20027;-43
2024/01/25 09:06:26;;;;;;;;;;;;;;;;;;5044732;28;20679;-43
2024/01/25 09:08:51;;;;;;;;;;;;;;;;;;5048634;28;20310;-44
2024/01/25 09:11:17;;;;;;;;;;;;;;;;;;5050484;28;19933;-46
2024/01/25 09:13:45;;;;;;;;;;;;;;;;;;5053480;28;19930;-43
2024/01/25 09:16:11;;;;;;;;;;;;;;;;;;5055933;28;20122;-44
2024/01/25 09:18:37;;;;;;;;;;;;;;;;;;5057766;28;20019;-45
2024/01/25 09:21:02;;;;;;;;;;;;;;;;;;5056657;28;20323;-43
2024/01/25 09:23:28;;;;;;;;;;;;;;;;;;5053635;28;19924;-46
2024/01/25 09:25:53;;;;;;;;;;;;;;;;;;5051652;28;20046;-44
2024/01/25 09:28:19;;;;;;;;;;;;;;;;;;5056892;28;20307;-47
2024/01/25 09:30:44;;;;;;;;;;;;;;;;;;5054972;28;19939;-45
2024/01/25 09:33:10;;;;;;;;;;;;;;;;;;5053133;28;20023;-42
2024/01/25 09:35:36;;;;;;;;;;;;;;;;;;5043938;28;19943;-43
2024/01/25 09:38:02;;;;;;;;;;;;;;;;;;5049582;28;19935;-43
2024/01/25 09:40:27;;;;;;;;;;;;;;;;;;5056884;28;19939;-42
2024/01/25 09:42:52;;;;;;;;;;;;;;;;;;5054285;28;19928;-46
2024/01/25 09:45:18;;;;;;;;;;;;;;;;;;5051670;28;20300;-42
2024/01/25 09:47:43;;;;;;;;;;;;;;;;;;5056225;28;19964;-42
2024/01/25 09:50:09;;;;;;;;;;;;;;;;;;5047229;28;20487;-43
2024/01/25 09:52:35;;;;;;;;;;;;;;;;;;5048434;28;19931;-43
2024/01/25 09:55:00;;;;;;;;;;;;;;;;;;5041421;28;20193;-46
2024/01/25 09:57:26;;;;;;;;;;;;;;;;;;5049705;28;19936;-45
2024/01/25 09:59:53;;;;;;;;;;;;;;;;;;5051792;28;19933;-42
2024/01/25 10:02:19;;;;;;;;;;;;;;;;;;5052475;28;20383;-43
2024/01/25 10:04:45;;;;;;;;;;;;;;;;;;5048159;28;20261;-45
2024/01/25 10:07:10;;;;;;;;;;;;;;;;;;4985126;28;20378;-43
2024/01/25 10:09:36;;;;;;;;;;;;;;;;;;4988038;28;20029;-43
2024/01/25 10:12:01;;;;;;;;;;;;;;;;;;4990509;28;20317;-42
2024/01/25 10:14:41;;;;;;;;;;;;;;;;;;4988230;28;19980;-44
2024/01/25 10:17:07;;;;;;;;;;;;;;;;;;4982221;28;20308;-46
2024/01/25 10:19:33;;;;;;;;;;;;;;;;;;4992111;28;20025;-43
2024/01/25 10:21:58;;;;;;;;;;;;;;;;;;4996094;28;20457;-43
2024/01/25 10:24:24;;;;;;;;;;;;;;;;;;4997058;28;19932;-44
2024/01/25 10:26:49;;;;;;;;;;;;;;;;;;5050931;28;20005;-44
2024/01/25 10:29:15;;;;;;;;;;;;;;;;;;5055272;28;19972;-44
2024/01/25 10:31:40;;;;;;;;;;;;;;;;;;5057631;28;20032;-43
2024/01/25 10:34:06;;;;;;;;;;;;;;;;;;5051336;28;19938;-47
2024/01/25 10:36:31;;;;;;;;;;;;;;;;;;5046273;28;19932;-48
2024/01/25 10:38:57;;;;;;;;;;;;;;;;;;5052115;28;20484;-44
2024/01/25 10:41:22;;;;;;;;;;;;;;;;;;5040183;28;19933;-44
2024/01/25 10:43:48;;;;;;;;;;;;;;;;;;5051116;28;19983;-47
2024/01/25 10:46:14;;;;;;;;;;;;;;;;;;5045657;28;20343;-49
2024/01/25 10:48:40;;;;;;;;;;;;;;;;;;5041951;28;19933;-43
2024/01/25 10:51:05;;;;;;;;;;;;;;;;;;5048978;28;20248;-46
2024/01/25 10:53:31;;;;;;;;;;;;;;;;;;5051754;28;20276;-45
2024/01/25 10:55:56;;;;;;;;;;;;;;;;;;5050090;28;20029;-46
2024/01/25 10:58:22;;;;;;;;;;;;;;;;;;5050268;28;19932;-45
2024/01/25 11:00:48;;;;;;;;;;;;;;;;;;5049875;28;19933;-44
2024/01/25 11:03:13;;;;;;;;;;;;;;;;;;5051928;28;20031;-43
2024/01/25 11:05:39;;;;;;;;;;;;;;;;;;5052721;28;20316;-42
2024/01/25 11:08:04;;;;;;;;;;;;;;;;;;5054822;28;20027;-45
2024/01/25 11:10:30;;;;;;;;;;;;;;;;;;5051784;28;19932;-46
2024/01/25 11:12:56;;;;;;;;;;;;;;;;;;5058414;28;19928;-43
2024/01/25 11:15:21;;;;;;;;;;;;;;;;;;5060561;28;20037;-45
2024/01/25 11:17:47;;;;;;;;;;;;;;;;;;4992115;28;19992;-49
2024/01/25 11:20:12;;;;;;;;;;;;;;;;;;4991117;28;19940;-43
2024/01/25 11:22:38;;;;;;;;;;;;;;;;;;4993152;28;19926;-45
2024/01/25 11:25:04;;;;;;;;;;;;;;;;;;4988755;28;20035;-43
2024/01/25 11:27:29;;;;;;;;;;;;;;;;;;4995688;28;20493;-44
2024/01/25 11:29:55;;;;;;;;;;;;;;;;;;4989624;28;20465;-45
2024/01/25 11:32:20;;;;;;;;;;;;;;;;;;4996150;28;20389;-43
2024/01/25 11:34:46;;;;;;;;;;;;;;;;;;5000235;28;19980;-42
2024/01/25 11:37:11;;;;;;;;;;;;;;;;;;5051244;28;19955;-42
2024/01/25 11:39:37;;;;;;;;;;;;;;;;;;5053420;28;19943;-45
2024/01/25 11:42:02;;;;;;;;;;;;;;;;;;5052402;28;20197;-43
2024/01/25 11:44:28;;;;;;;;;;;;;;;;;;5047999;28;19932;-41
2024/01/25 11:46:54;;;;;;;;;;;;;;;;;;5050969;28;19951;-42
2024/01/25 11:49:19;;;;;;;;;;;;;;;;;;5051479;28;20013;-44
2024/01/25 11:51:45;;;;;;;;;;;;;;;;;;5054723;28;20007;-44
2024/01/25 11:54:10;;;;;;;;;;;;;;;;;;5058103;28;19932;-44
2024/01/25 11:56:36;;;;;;;;;;;;;;;;;;5058005;28;20006;-44
2024/01/25 11:59:02;;;;;;;;;;;;;;;;;;5054069;28;19928;-44
2024/01/25 12:01:27;;;;;;;;;;;;;;;;;;5056195;28;20023;-43
2024/01/25 12:03:53;;;;;;;;;;;;;;;;;;5057189;28;20004;-45
2024/01/25 12:06:19;;;;;;;;;;;;;;;;;;5060716;28;19936;-44
2024/01/25 12:08:44;;;;;;;;;;;;;;;;;;5061328;28;19924;-44
2024/01/25 12:11:10;;;;;;;;;;;;;;;;;;5060179;28;19932;-42
2024/01/25 12:13:35;;;;;;;;;;;;;;;;;;5054456;28;19978;-44
2024/01/25 12:16:02;;;;;;;;;;;;;;;;;;5061005;28;19932;-43
2024/01/25 12:18:27;;;;;;;;;;;;;;;;;;5060122;28;19933;-44
2024/01/25 12:20:53;;;;;;;;;;;;;;;;;;5059407;28;19925;-43
2024/01/25 12:23:18;;;;;;;;;;;;;;;;;;5059251;28;19933;-45
2024/01/25 12:25:44;;;;;;;;;;;;;;;;;;5054596;28;20019;-43
2024/01/25 12:28:09;;;;;;;;;;;;;;;;;;5054401;28;19924;-43
2024/01/25 12:30:35;;;;;;;;;;;;;;;;;;5050463;28;19938;-44
2024/01/25 12:33:00;;;;;;;;;;;;;;;;;;5051079;28;19940;-43
2024/01/25 12:35:26;;;;;;;;;;;;;;;;;;5051397;28;20315;-43
2024/01/25 12:37:52;;;;;;;;;;;;;;;;;;5051128;28;19969;-43
2024/01/25 12:40:17;;;;;;;;;;;;;;;;;;5053550;28;20005;-45
2024/01/25 12:42:43;;;;;;;;;;;;;;;;;;5055540;28;20489;-44
2024/01/25 12:45:08;;;;;;;;;;;;;;;;;;5052760;28;20046;-44
2024/01/25 12:47:34;;;;;;;;;;;;;;;;;;5056452;28;20409;-44
2024/01/25 12:49:59;;;;;;;;;;;;;;;;;;5052500;28;20016;-43
2024/01/25 12:52:25;;;;;;;;;;;;;;;;;;5052827;28;20141;-43
2024/01/25 12:54:50;;;;;;;;;;;;;;;;;;5052686;28;20030;-44
2024/01/25 12:57:16;;;;;;;;;;;;;;;;;;5055291;28;19932;-44
2024/01/25 12:59:41;;;;;;;;;;;;;;;;;;5060481;28;20413;-43
2024/01/25 13:02:07;;;;;;;;;;;;;;;;;;5051867;28;19929;-45
2024/01/25 13:04:32;;;;;;;;;;;;;;;;;;5061452;28;19976;-44
2024/01/25 13:06:58;;;;;;;;;;;;;;;;;;5050989;28;20039;-43
2024/01/25 13:09:23;;;;;;;;;;;;;;;;;;5058534;28;20206;-43
2024/01/25 13:11:49;;;;;;;;;;;;;;;;;;5052947;28;21639;-46
2024/01/25 13:14:14;;;;;;;;;;;;;;;;;;5055015;28;20031;-44
2024/01/25 13:16:40;;;;;;;;;;;;;;;;;;5054691;28;20468;-43
2024/01/25 13:19:05;;;;;;;;;;;;;;;;;;5056188;28;20047;-43
2024/01/25 13:21:31;;;;;;;;;;;;;;;;;;5047787;28;20043;-44
2024/01/25 13:23:56;;;;;;;;;;;;;;;;;;5049154;28;19924;-43
2024/01/25 13:26:22;;;;;;;;;;;;;;;;;;5050098;28;19933;-43
2024/01/25 13:28:47;;;;;;;;;;;;;;;;;;5048482;28;20283;-43
2024/01/25 13:31:13;;;;;;;;;;;;;;;;;;5042575;28;19971;-43
2024/01/25 13:33:38;;;;;;;;;;;;;;;;;;5048654;28;20019;-44
2024/01/25 13:36:08;;;;;;;;;;;;;;;;;;5049756;28;20038;-44
2024/01/25 13:38:33;;;;;;;;;;;;;;;;;;5050086;28;20054;-44
2024/01/25 13:40:59;;;;;;;;;;;;;;;;;;4969501;28;19934;-44
2024/01/25 13:43:24;;;;;;;;;;;;;;;;;;4966243;28;19925;-44
2024/01/25 13:45:50;;;;;;;;;;;;;;;;;;4967233;28;20402;-43
2024/01/25 13:48:15;;;;;;;;;;;;;;;;;;4966745;28;20024;-43
2024/01/25 13:50:41;;;;;;;;;;;;;;;;;;4970047;28;19934;-43
2024/01/25 13:53:06;;;;;;;;;;;;;;;;;;4966711;28;19940;-46
2024/01/25 13:55:32;;;;;;;;;;;;;;;;;;4968120;28;20417;-45
2024/01/25 13:57:57;;;;;;;;;;;;;;;;;;4971350;28;20033;-47
2024/01/25 14:00:23;;;;;;;;;;;;;;;;;;5049795;28;20078;-43
2024/01/25 14:02:48;;;;;;;;;;;;;;;;;;5051161;28;19928;-45
2024/01/25 14:05:14;;;;;;;;;;;;;;;;;;5048271;28;19925;-44
2024/01/25 14:07:39;;;;;;;;;;;;;;;;;;5049040;28;19933;-43
2024/01/25 14:10:05;;;;;;;;;;;;;;;;;;5046626;28;20415;-43
2024/01/25 14:12:30;;;;;;;;;;;;;;;;;;5046242;28;20547;-42
2024/01/25 14:14:56;;;;;;;;;;;;;;;;;;5049437;28;20397;-43
2024/01/25 14:17:21;;;;;;;;;;;;;;;;;;5053848;28;19932;-44
2024/01/25 14:19:46;;;;;;;;;;;;;;;;;;5056694;28;19938;-44
2024/01/25 14:22:12;;;;;;;;;;;;;;;;;;5056744;28;20063;-44
2024/01/25 14:24:47;;;;;;;;;;;;;;;;;;5056201;28;19932;-44
2024/01/25 14:27:13;;;;;;;;;;;;;;;;;;5055597;28;20011;-44
2024/01/25 14:29:38;;;;;;;;;;;;;;;;;;5057281;28;20414;-43
2024/01/25 14:32:04;;;;;;;;;;;;;;;;;;5057253;28;19979;-44
2024/01/25 14:34:29;;;;;;;;;;;;;;;;;;5056937;28;19963;-43
2024/01/25 14:36:55;;;;;;;;;;;;;;;;;;5052991;28;20605;-44
2024/01/25 14:39:20;;;;;;;;;;;;;;;;;;5055941;28;20070;-43
2024/01/25 14:41:46;;;;;;;;;;;;;;;;;;5056198;28;19935;-45
2024/01/25 14:44:12;;;;;;;;;;;;;;;;;;5054172;28;19932;-43
2024/01/25 14:46:37;;;;;;;;;;;;;;;;;;5054430;28;19932;-43
2024/01/25 14:49:02;;;;;;;;;;;;;;;;;;5055532;28;19924;-45
2024/01/25 14:51:28;;;;;;;;;;;;;;;;;;5055524;28;19932;-44
2024/01/25 14:53:54;;;;;;;;;;;;;;;;;;5049205;28;20150;-44
2024/01/25 14:56:19;;;;;;;;;;;;;;;;;;5053100;28;19975;-43
2024/01/25 14:58:44;;;;;;;;;;;;;;;;;;5055199;28;19938;-43
2024/01/25 15:01:10;;;;;;;;;;;;;;;;;;5056735;28;19925;-45
2024/01/25 15:03:35;;;;;;;;;;;;;;;;;;5055721;28;19932;-43
2024/01/25 15:06:01;;;;;;;;;;;;;;;;;;5054902;28;19956;-43
2024/01/25 15:08:27;;;;;;;;;;;;;;;;;;5054427;28;19925;-43
2024/01/25 15:10:52;;;;;;;;;;;;;;;;;;5053999;28;20309;-46
2024/01/25 15:13:18;;;;;;;;;;;;;;;;;;5059913;28;20298;-46
2024/01/25 15:15:44;;;;;;;;;;;;;;;;;;5059597;28;20035;-42
2024/01/25 15:18:09;;;;;;;;;;;;;;;;;;5052786;28;19936;-43
2024/01/25 15:20:35;;;;;;;;;;;;;;;;;;5054976;28;19924;-45
2024/01/25 15:23:02;;;;;;;;;;;;;;;;;;5057064;28;19984;-44
2024/01/25 15:25:27;;;;;;;;;;;;;;;;;;5051101;28;19925;-43
2024/01/25 15:27:53;;;;;;;;;;;;;;;;;;5050365;28;19936;-45
2024/01/25 15:30:18;;;;;;;;;;;;;;;;;;5057898;28;19925;-43
2024/01/25 15:32:46;;;;;;;;;;;;;;;;;;5053935;28;19956;-43
2024/01/25 15:35:11;;;;;;;;;;;;;;;;;;5055571;28;19933;-43
2024/01/25 15:37:37;;;;;;;;;;;;;;;;;;5055626;28;19964;-43
2024/01/25 15:40:08;;;;;;;;;;;;;;;;;;5056105;28;19933;-46
2024/01/25 15:42:33;;;;;;;;;;;;;;;;;;5058375;28;19978;-43
2024/01/25 15:44:59;;;;;;;;;;;;;;;;;;5055111;28;20035;-44
2024/01/25 15:47:24;;;;;;;;;;;;;;;;;;5059470;28;19982;-43
2024/01/25 15:49:50;;;;;;;;;;;;;;;;;;5054739;28;20014;-43
2024/01/25 15:52:15;;;;;;;;;;;;;;;;;;5048948;28;19956;-43
2024/01/25 15:54:43;;;;;;;;;;;;;;;;;;5048415;28;19928;-45
2024/01/25 15:57:09;;;;;;;;;;;;;;;;;;5048602;28;20543;-42
2024/01/25 15:59:35;;;;;;;;;;;;;;;;;;5049076;28;19991;-43
2024/01/25 16:02:00;;;;;;;;;;;;;;;;;;5049491;28;20035;-42
2024/01/25 16:04:26;;;;;;;;;;;;;;;;;;5048472;28;20085;-42
2024/01/25 16:06:51;;;;;;;;;;;;;;;;;;5051230;28;20027;-42
2024/01/25 16:09:17;;;;;;;;;;;;;;;;;;5049021;28;19929;-43
2024/01/25 16:11:42;;;;;;;;;;;;;;;;;;5048001;28;19931;-44
2024/01/25 16:14:08;;;;;;;;;;;;;;;;;;5046688;28;19983;-45
2024/01/25 16:16:33;;;;;;;;;;;;;;;;;;5047945;28;19939;-43
2024/01/25 16:18:58;;;;;;;;;;;;;;;;;;5048772;28;19979;-43
2024/01/25 16:21:24;;;;;;;;;;;;;;;;;;5048736;28;19929;-45
2024/01/25 16:23:49;;;;;;;;;;;;;;;;;;5047436;28;20020;-43
2024/01/25 16:26:15;;;;;;;;;;;;;;;;;;5048153;28;20333;-44
2024/01/25 16:28:40;;;;;;;;;;;;;;;;;;5048028;28;19968;-43
2024/01/25 16:31:06;;;;;;;;;;;;;;;;;;5047946;28;20070;-45
2024/01/25 16:33:31;;;;;;;;;;;;;;;;;;5047753;28;19952;-43
2024/01/25 16:35:57;;;;;;;;;;;;;;;;;;5047503;28;19925;-43